createdAt,value
2018-03-26T00:00:43.421Z,5.83
2018-03-26T00:03:46.794Z,5.20
2018-03-26T00:06:50.217Z,4.77
2018-03-26T00:09:54.318Z,5.17
2018-03-26T00:12:57.673Z,6.13
2018-03-26T00:16:01.025Z,6.70
2018-03-26T00:19:04.372Z,6.57
2018-03-26T00:22:07.753Z,6.77
2018-03-26T00:25:11.873Z,7.27
2018-03-26T00:28:15.650Z,5.87
2018-03-26T00:31:19.000Z,5.27
2018-03-26T00:34:22.401Z,5.03
2018-03-26T00:37:25.759Z,6.20
2018-03-26T00:40:29.932Z,5.03
2018-03-26T00:43:33.277Z,6.10
2018-03-26T00:46:37.453Z,5.13
2018-03-26T00:49:40.829Z,4.93
2018-03-26T00:52:44.222Z,6.87
2018-03-26T00:55:47.570Z,5.20
2018-03-26T00:58:51.688Z,6.70
2018-03-26T01:01:56.769Z,5.73
2018-03-26T01:05:00.117Z,4.67
2018-03-26T01:08:03.489Z,5.20
2018-03-26T01:11:06.841Z,3.57
2018-03-26T01:14:10.227Z,4.47
2018-03-26T01:17:13.582Z,3.80
2018-03-26T01:20:16.933Z,3.80
2018-03-26T01:23:20.283Z,2.70
2018-03-26T01:26:23.670Z,3.57
2018-03-26T01:29:27.027Z,4.53
2018-03-26T01:32:30.375Z,3.50
2018-03-26T01:35:33.754Z,4.63
2018-03-26T01:38:37.221Z,3.70
2018-03-26T01:41:40.621Z,3.10
2018-03-26T01:44:43.973Z,3.37
2018-03-26T01:47:47.327Z,2.27
2018-03-26T01:50:50.855Z,3.67
2018-03-26T01:53:54.973Z,4.03
2018-03-26T01:56:58.319Z,4.30
2018-03-26T02:00:01.694Z,5.23
2018-03-26T02:03:05.032Z,4.57
2018-03-26T02:06:09.359Z,5.07
2018-03-26T02:09:12.726Z,6.40
2018-03-26T02:12:16.103Z,3.83
2018-03-26T02:15:19.473Z,3.57
2018-03-26T02:18:23.602Z,4.07
2018-03-26T02:21:26.966Z,3.57
2018-03-26T02:24:31.831Z,3.13
2018-03-26T02:27:35.955Z,3.43
2018-03-26T02:30:39.333Z,4.00
2018-03-26T02:33:43.472Z,3.70
2018-03-26T02:36:46.830Z,3.73
2018-03-26T02:39:50.950Z,3.37
2018-03-26T02:42:55.810Z,3.17
2018-03-26T02:45:59.928Z,3.37
2018-03-26T02:49:04.063Z,3.93
2018-03-26T02:52:07.420Z,4.37
2018-03-26T02:55:10.780Z,5.13
2018-03-26T02:58:14.141Z,3.80
2018-03-26T03:01:18.273Z,4.17
2018-03-26T03:04:21.656Z,4.70
2018-03-26T03:07:25.772Z,4.73
2018-03-26T03:10:29.891Z,5.00
2018-03-26T03:13:34.026Z,3.60
2018-03-26T03:16:37.386Z,4.10
2018-03-26T03:19:41.500Z,4.60
2018-03-26T03:22:44.845Z,5.40
2018-03-26T03:25:48.198Z,4.67
2018-03-26T03:28:51.552Z,4.70
2018-03-26T03:31:55.011Z,4.17
2018-03-26T03:34:59.134Z,3.90
2018-03-26T03:38:03.241Z,5.07
2018-03-26T03:41:07.370Z,4.60
2018-03-26T03:44:11.486Z,4.00
2018-03-26T03:47:15.617Z,4.10
2018-03-26T03:50:19.127Z,4.63
2018-03-26T03:53:22.481Z,4.07
2018-03-26T03:56:25.830Z,5.87
2018-03-26T03:59:29.187Z,4.80
2018-03-26T04:02:33.312Z,5.10
2018-03-26T04:05:37.448Z,5.10
2018-03-26T04:08:40.798Z,5.37
2018-03-26T04:11:44.166Z,4.93
2018-03-26T04:14:47.645Z,6.10
2018-03-26T04:17:51.019Z,5.63
2018-03-26T04:20:55.225Z,5.07
2018-03-26T04:23:58.582Z,5.90
2018-03-26T04:27:01.942Z,6.10
2018-03-26T04:30:06.051Z,5.80
2018-03-26T04:33:09.411Z,5.73
2018-03-26T04:36:12.833Z,5.70
2018-03-26T04:39:16.186Z,5.93
2018-03-26T04:42:19.529Z,5.47
2018-03-26T04:45:24.508Z,6.00
2018-03-26T04:48:27.863Z,7.00
2018-03-26T04:51:31.226Z,6.10
2018-03-26T04:54:34.575Z,6.30
2018-03-26T04:57:37.917Z,6.97
2018-03-26T05:00:41.298Z,6.80
2018-03-26T05:03:44.652Z,6.50
2018-03-26T05:06:48.008Z,5.93
2018-03-26T05:09:51.359Z,5.90
2018-03-26T05:12:55.518Z,6.23
2018-03-26T05:15:59.035Z,6.37
2018-03-26T05:19:02.376Z,5.90
2018-03-26T05:22:05.714Z,5.07
2018-03-26T05:25:09.071Z,5.37
2018-03-26T05:28:12.421Z,5.47
2018-03-26T05:31:15.764Z,5.67
2018-03-26T05:34:19.893Z,6.50
2018-03-26T05:37:23.255Z,5.57
2018-03-26T05:40:26.608Z,5.97
2018-03-26T05:43:29.981Z,6.27
2018-03-26T05:46:34.114Z,5.80
2018-03-26T05:49:37.518Z,4.27
2018-03-26T05:52:41.634Z,4.70
2018-03-26T05:55:45.872Z,4.97
2018-03-26T05:58:49.234Z,4.67
2018-03-26T06:01:53.431Z,4.70
2018-03-26T06:04:57.004Z,4.87
2018-03-26T06:08:00.426Z,5.27
2018-03-26T06:11:03.798Z,4.80
2018-03-26T06:14:07.155Z,4.63
2018-03-26T06:17:14.658Z,4.70
2018-03-26T06:20:18.020Z,4.33
2018-03-26T06:23:21.471Z,4.40
2018-03-26T06:26:25.623Z,5.17
2018-03-26T06:29:28.973Z,4.17
2018-03-26T06:32:32.303Z,3.77
2018-03-26T06:35:35.706Z,3.27
2018-03-26T06:38:39.969Z,4.17
2018-03-26T06:41:43.547Z,3.87
2018-03-26T06:44:46.905Z,4.50
2018-03-26T06:47:51.051Z,3.50
2018-03-26T06:50:54.400Z,3.70
2018-03-26T06:53:57.796Z,4.30
2018-03-26T06:57:01.149Z,4.73
2018-03-26T07:00:04.482Z,4.30
2018-03-26T07:03:07.858Z,3.93
2018-03-26T07:06:11.207Z,4.10
2018-03-26T07:09:14.564Z,4.20
2018-03-26T07:12:17.963Z,5.23
2018-03-26T07:15:21.408Z,8.60
2018-03-26T07:18:24.747Z,3.70
2018-03-26T07:21:28.102Z,3.73
2018-03-26T07:24:32.231Z,3.37
2018-03-26T07:27:36.367Z,3.80
2018-03-26T07:30:39.722Z,3.73
2018-03-26T07:33:43.100Z,3.30
2018-03-26T07:36:46.499Z,3.70
2018-03-26T07:39:49.861Z,3.27
2018-03-26T07:42:53.296Z,3.50
2018-03-26T07:45:56.676Z,3.07
2018-03-26T07:49:00.051Z,3.27
2018-03-26T07:52:04.167Z,3.50
2018-03-26T07:55:08.295Z,3.30
2018-03-26T07:58:11.640Z,3.37
2018-03-26T08:01:14.987Z,3.73
2018-03-26T08:04:18.306Z,3.43
2018-03-26T08:07:21.653Z,3.27
2018-03-26T08:10:24.997Z,3.43
2018-03-26T08:13:28.345Z,3.10
2018-03-26T08:16:31.701Z,3.10
2018-03-26T08:19:35.127Z,3.10
2018-03-26T08:22:38.477Z,2.80
2018-03-26T08:25:41.860Z,2.80
2018-03-26T08:28:45.971Z,3.40
2018-03-26T08:31:49.327Z,2.90
2018-03-26T08:34:52.677Z,2.97
2018-03-26T08:37:56.873Z,3.10
2018-03-26T08:41:00.998Z,2.30
2018-03-26T08:44:04.345Z,2.50
2018-03-26T08:47:07.759Z,3.07
2018-03-26T08:50:11.239Z,3.03
2018-03-26T08:53:14.490Z,4.27
2018-03-26T08:56:17.865Z,3.23
2018-03-26T08:59:21.234Z,2.90
2018-03-26T09:02:24.606Z,3.50
2018-03-26T09:05:28.851Z,2.43
2018-03-26T09:08:32.192Z,3.60
2018-03-26T09:11:35.649Z,3.23
2018-03-26T09:14:39.013Z,3.27
2018-03-26T09:17:42.417Z,4.50
2018-03-26T09:20:46.564Z,7.50
2018-03-26T09:23:49.974Z,4.73
2018-03-26T09:26:53.539Z,5.30
2018-03-26T09:29:56.882Z,5.00
2018-03-26T09:33:00.278Z,4.53
2018-03-26T09:36:03.654Z,5.00
2018-03-26T09:39:06.994Z,4.97
2018-03-26T09:42:10.342Z,5.53
2018-03-26T09:45:14.471Z,4.87
2018-03-26T09:48:17.852Z,4.90
2018-03-26T09:51:22.129Z,4.97
2018-03-26T09:54:25.477Z,6.00
2018-03-26T09:57:29.623Z,4.70
2018-03-26T10:00:38.709Z,4.00
2018-03-26T10:03:42.072Z,4.60
2018-03-26T10:06:45.449Z,4.23
2018-03-26T10:09:48.802Z,4.20
2018-03-26T10:12:52.233Z,3.97
2018-03-26T10:15:55.581Z,4.43
2018-03-26T10:18:58.981Z,4.90
2018-03-26T10:22:02.448Z,4.30
2018-03-26T10:25:05.843Z,5.10
2018-03-26T10:28:09.196Z,5.20
2018-03-26T10:31:12.647Z,5.60
2018-03-26T10:34:16.034Z,4.80
2018-03-26T10:37:19.489Z,4.87
2018-03-26T10:40:22.823Z,4.80
2018-03-26T10:43:26.951Z,3.80
2018-03-26T10:46:30.314Z,4.43
2018-03-26T10:49:33.684Z,4.70
2018-03-26T10:52:37.039Z,5.17
2018-03-26T10:55:41.263Z,5.17
2018-03-26T10:58:44.620Z,5.40
2018-03-26T11:01:49.507Z,5.83
2018-03-26T11:04:52.866Z,5.63
2018-03-26T11:07:56.205Z,4.63
2018-03-26T11:10:59.647Z,3.50
2018-03-26T11:14:03.021Z,4.20
2018-03-26T11:17:06.428Z,3.93
2018-03-26T11:20:09.793Z,3.87
2018-03-26T11:23:13.162Z,4.20
2018-03-26T11:26:16.502Z,3.20
2018-03-26T11:29:19.947Z,3.53
2018-03-26T11:32:23.290Z,3.37
2018-03-26T11:35:26.656Z,3.27
2018-03-26T11:38:30.010Z,3.03
2018-03-26T11:41:33.368Z,3.20
2018-03-26T11:44:37.503Z,3.10
2018-03-26T11:47:40.860Z,2.80
2018-03-26T11:50:44.219Z,2.50
2018-03-26T11:53:47.580Z,2.80
2018-03-26T11:56:51.828Z,2.63
2018-03-26T11:59:55.197Z,2.10
2018-03-26T12:02:58.577Z,2.07
2018-03-26T12:06:02.717Z,2.00
2018-03-26T12:09:06.850Z,1.93
2018-03-26T12:12:10.257Z,2.00
2018-03-26T12:15:13.625Z,1.73
2018-03-26T12:18:17.077Z,1.70
2018-03-26T12:21:20.447Z,1.60
2018-03-26T12:24:41.606Z,2.20
2018-03-26T12:28:02.773Z,1.70
2018-03-26T12:31:06.907Z,3.27
2018-03-26T12:34:28.298Z,1.47
2018-03-26T12:37:31.719Z,1.53
2018-03-26T12:40:53.894Z,1.60
2018-03-26T12:43:57.367Z,1.80
2018-03-26T12:47:00.720Z,2.00
2018-03-26T12:50:05.595Z,2.00
2018-03-26T12:53:08.940Z,1.80
2018-03-26T12:56:12.348Z,1.70
2018-03-26T12:59:15.709Z,2.27
2018-03-26T13:02:27.544Z,1.90
2018-03-26T13:05:30.899Z,1.90
2018-03-26T13:08:34.271Z,2.20
2018-03-26T13:11:38.493Z,2.20
2018-03-26T13:14:42.639Z,2.67
2018-03-26T13:17:46.031Z,2.27
2018-03-26T13:20:49.385Z,2.23
2018-03-26T13:23:52.788Z,2.03
2018-03-26T13:26:56.169Z,2.27
2018-03-26T13:29:59.605Z,2.47
2018-03-26T13:33:02.914Z,3.07
2018-03-26T13:36:07.045Z,2.60
2018-03-26T13:39:10.413Z,2.27
2018-03-26T13:42:13.768Z,2.00
2018-03-26T13:45:17.121Z,1.40
2018-03-26T13:48:21.268Z,1.67
2018-03-26T13:51:24.637Z,1.60
2018-03-26T13:54:28.759Z,1.90
2018-03-26T13:57:32.878Z,2.00
2018-03-26T14:00:37.009Z,1.70
2018-03-26T14:03:40.362Z,1.93
2018-03-26T14:06:43.709Z,1.73
2018-03-26T14:10:04.922Z,1.83
2018-03-26T14:13:26.181Z,1.90
2018-03-26T14:16:47.602Z,2.43
2018-03-26T14:19:50.961Z,2.80
2018-03-26T14:22:54.470Z,2.23
2018-03-26T14:25:57.869Z,2.13
2018-03-26T14:29:01.291Z,6.13
2018-03-26T14:32:04.674Z,2.20
2018-03-26T14:39:02.237Z,1.73
2018-03-26T14:42:06.367Z,1.30
2018-03-26T14:45:09.771Z,1.47
2018-03-26T14:48:13.143Z,1.20
2018-03-26T14:51:17.275Z,0.87
2018-03-26T14:54:21.410Z,1.33
2018-03-26T14:57:24.894Z,1.20
2018-03-26T15:00:29.091Z,1.60
2018-03-26T15:03:32.626Z,1.53
2018-03-26T15:06:36.086Z,1.60
2018-03-26T15:09:39.443Z,1.50
2018-03-26T15:12:42.847Z,2.10
2018-03-26T15:15:46.243Z,1.37
2018-03-26T15:18:49.645Z,1.87
2018-03-26T15:21:53.021Z,1.43
2018-03-26T15:24:56.373Z,2.03
2018-03-26T15:27:59.726Z,1.50
2018-03-26T15:31:03.129Z,1.80
2018-03-26T15:34:06.508Z,2.00
2018-03-26T15:37:10.674Z,1.60
2018-03-26T15:40:14.053Z,1.13
2018-03-26T15:43:17.407Z,1.30
2018-03-26T15:46:21.563Z,1.20
2018-03-26T15:49:24.938Z,1.77
2018-03-26T15:52:28.345Z,1.83
2018-03-26T15:55:31.759Z,1.80
2018-03-26T15:58:35.157Z,1.63
2018-03-26T16:01:38.523Z,2.00
2018-03-26T16:04:42.684Z,1.90
2018-03-26T16:07:46.151Z,1.90
2018-03-26T16:10:50.366Z,1.73
2018-03-26T16:13:54.498Z,2.47
2018-03-26T16:16:58.101Z,1.70
2018-03-26T16:20:01.581Z,1.80
2018-03-26T16:23:05.071Z,2.53
2018-03-26T16:26:08.432Z,1.50
2018-03-26T16:29:11.790Z,1.60
2018-03-26T16:32:15.904Z,1.40
2018-03-26T16:35:20.058Z,1.37
2018-03-26T16:38:23.424Z,2.13
2018-03-26T16:41:48.508Z,2.00
2018-03-26T16:44:51.898Z,2.17
2018-03-26T16:47:55.310Z,2.10
2018-03-26T16:50:58.682Z,1.87
2018-03-26T16:54:02.099Z,1.83
2018-03-26T16:57:06.994Z,1.80
2018-03-26T17:00:10.528Z,2.40
2018-03-26T17:03:13.889Z,2.40
2018-03-26T17:06:17.298Z,2.40
2018-03-26T17:09:20.705Z,2.53
2018-03-26T17:12:24.073Z,2.13
2018-03-26T17:15:28.196Z,2.20
2018-03-26T17:18:31.808Z,2.70
2018-03-26T17:21:35.189Z,2.30
2018-03-26T17:24:39.417Z,2.70
2018-03-26T17:27:43.547Z,2.90
2018-03-26T17:30:46.919Z,3.13
2018-03-26T17:33:51.291Z,3.40
2018-03-26T17:36:54.677Z,3.30
2018-03-26T17:39:58.052Z,3.43
2018-03-26T17:43:02.475Z,3.57
2018-03-26T17:46:06.716Z,3.40
2018-03-26T17:49:10.118Z,3.43
2018-03-26T17:52:13.482Z,3.87
2018-03-26T17:55:17.629Z,3.20
2018-03-26T17:58:20.995Z,3.60
2018-03-26T18:01:25.160Z,4.43
2018-03-26T18:04:28.818Z,4.20
2018-03-26T18:07:33.116Z,3.67
2018-03-26T18:10:37.261Z,3.47
2018-03-26T18:13:41.497Z,3.90
2018-03-26T18:16:45.084Z,3.63
2018-03-26T18:19:49.278Z,4.07
2018-03-26T18:22:52.708Z,4.07
2018-03-26T18:25:57.075Z,4.40
2018-03-26T18:29:00.646Z,4.00
2018-03-26T18:32:04.038Z,3.83
2018-03-26T18:35:08.217Z,4.67
2018-03-26T18:38:11.568Z,4.87
2018-03-26T18:41:14.983Z,4.73
2018-03-26T18:44:18.391Z,5.57
2018-03-26T18:47:21.775Z,5.90
2018-03-26T18:50:25.195Z,5.43
2018-03-26T18:53:28.570Z,6.30
2018-03-26T18:56:31.987Z,6.47
2018-03-26T18:59:35.395Z,6.33
2018-03-26T19:02:38.788Z,6.07
2018-03-26T19:05:42.298Z,5.60
2018-03-26T19:08:45.727Z,5.70
2018-03-26T19:11:49.865Z,6.83
2018-03-26T19:14:54.020Z,6.27
2018-03-26T19:17:57.384Z,6.20
2018-03-26T19:21:01.581Z,6.80
2018-03-26T19:24:04.965Z,5.87
2018-03-26T19:27:08.357Z,5.90
2018-03-26T19:30:11.843Z,6.13
2018-03-26T19:33:15.271Z,6.83
2018-03-26T19:36:18.684Z,5.87
2018-03-26T19:39:22.183Z,6.43
2018-03-26T19:42:26.454Z,5.80
2018-03-26T19:45:29.861Z,7.00
2018-03-26T19:48:33.355Z,6.07
2018-03-26T19:51:36.786Z,6.60
2018-03-26T19:54:40.174Z,6.97
2018-03-26T19:57:43.644Z,6.73
2018-03-26T20:00:47.077Z,6.60
2018-03-26T20:03:51.647Z,6.73
2018-03-26T20:06:55.076Z,6.53
2018-03-26T20:09:58.469Z,6.60
2018-03-26T20:13:02.002Z,7.37
2018-03-26T20:16:05.478Z,6.93
2018-03-26T20:19:08.939Z,7.03
2018-03-26T20:22:13.852Z,6.77
2018-03-26T20:25:17.222Z,7.50
2018-03-26T20:28:20.605Z,7.47
2018-03-26T20:31:24.775Z,7.40
2018-03-26T20:34:28.345Z,6.57
2018-03-26T20:37:31.737Z,7.33
2018-03-26T20:40:35.116Z,6.60
2018-03-26T20:43:39.252Z,7.00
2018-03-26T20:46:42.639Z,6.87
2018-03-26T20:49:46.763Z,6.47
2018-03-26T20:52:50.128Z,6.27
2018-03-26T20:55:53.505Z,6.73
2018-03-26T20:58:56.875Z,5.83
2018-03-26T21:02:00.242Z,6.10
2018-03-26T21:05:04.379Z,6.13
2018-03-26T21:08:07.738Z,6.20
2018-03-26T21:11:11.862Z,7.13
2018-03-26T21:14:15.220Z,6.50
2018-03-26T21:17:18.622Z,6.23
2018-03-26T21:20:22.112Z,6.60
2018-03-26T21:23:25.471Z,7.27
2018-03-26T21:26:29.619Z,6.40
2018-03-26T21:29:33.015Z,6.50
2018-03-26T21:32:36.375Z,6.77
2018-03-26T21:35:39.738Z,6.77
2018-03-26T21:38:43.118Z,6.43
2018-03-26T21:41:46.603Z,6.67
2018-03-26T21:44:50.848Z,6.60
2018-03-26T21:47:54.222Z,6.83
2018-03-26T21:50:58.354Z,7.07
2018-03-26T21:54:01.724Z,6.80
2018-03-26T21:57:05.856Z,6.90
2018-03-26T22:00:24.849Z,7.07
2018-03-26T22:03:28.194Z,6.77
2018-03-26T22:06:31.537Z,6.70
2018-03-26T22:09:35.181Z,6.50
2018-03-26T22:12:39.306Z,6.33
2018-03-26T22:15:42.888Z,5.87
2018-03-26T22:18:46.245Z,6.10
2018-03-26T22:21:49.645Z,5.77
2018-03-26T22:24:53.009Z,5.80
2018-03-26T22:27:57.896Z,6.03
2018-03-26T22:31:01.273Z,7.20
2018-03-26T22:34:05.395Z,5.43
2018-03-26T22:37:08.906Z,5.63
2018-03-26T22:40:12.264Z,5.63
2018-03-26T22:43:15.623Z,5.13
2018-03-26T22:46:18.974Z,4.97
2018-03-26T22:49:23.088Z,5.33
2018-03-26T22:52:27.194Z,5.20
2018-03-26T22:55:30.537Z,5.63
2018-03-26T22:58:33.952Z,5.07
2018-03-26T23:01:37.302Z,5.37
2018-03-26T23:04:41.542Z,5.30
2018-03-26T23:07:44.902Z,6.10
2018-03-26T23:10:49.069Z,5.67
2018-03-26T23:13:52.449Z,5.60
2018-03-26T23:16:56.570Z,6.00
2018-03-26T23:19:59.990Z,5.87
2018-03-26T23:23:03.371Z,5.40
2018-03-26T23:26:06.822Z,6.30
2018-03-26T23:29:10.179Z,6.20
2018-03-26T23:32:13.630Z,5.43
2018-03-26T23:35:17.742Z,6.33
2018-03-26T23:38:21.130Z,7.00
2018-03-26T23:41:24.509Z,5.23
2018-03-26T23:44:27.844Z,5.43
2018-03-26T23:47:31.203Z,5.93
2018-03-26T23:50:34.576Z,5.97
2018-03-26T23:53:38.696Z,6.10
2018-03-26T23:56:42.811Z,6.63
2018-03-26T23:59:46.938Z,5.60
